createdAt,value
2022-10-07T00:00:49.024Z,8.20
2022-10-07T00:03:34.036Z,8.40
2022-10-07T00:06:08.822Z,8.80
2022-10-07T00:08:42.675Z,8.60
2022-10-07T00:11:16.712Z,10.40
2022-10-07T00:13:49.800Z,9.00
2022-10-07T00:16:24.706Z,10.00
2022-10-07T00:21:30.836Z,9.00
2022-10-07T00:24:04.049Z,8.00
2022-10-07T00:26:38.528Z,8.30
2022-10-07T00:29:10.636Z,8.30
2022-10-07T00:31:42.951Z,7.70
2022-10-07T00:34:15.373Z,7.40
2022-10-07T00:36:51.106Z,8.20
2022-10-07T00:39:23.307Z,8.20
2022-10-07T00:41:55.959Z,9.30
2022-10-07T00:44:41.956Z,13.40
2022-10-07T00:47:24.417Z,21.50
2022-10-07T00:50:02.570Z,20.20
2022-10-07T00:52:38.287Z,20.50
2022-10-07T00:55:14.654Z,24.60
2022-10-07T00:57:48.510Z,25.60
2022-10-07T01:00:23.569Z,26.10
2022-10-07T01:02:55.721Z,26.50
2022-10-07T01:05:27.856Z,27.40
2022-10-07T01:08:01.255Z,23.70
2022-10-07T01:10:41.731Z,21.60
2022-10-07T01:13:19.859Z,21.40
2022-10-07T01:15:58.245Z,22.50
2022-10-07T01:18:38.363Z,21.40
2022-10-07T01:21:16.734Z,22.70
2022-10-07T01:24:04.806Z,21.90
2022-10-07T01:27:01.943Z,19.00
2022-10-07T01:29:39.574Z,17.00
2022-10-07T01:32:20.086Z,15.60
2022-10-07T01:34:55.207Z,13.10
2022-10-07T01:37:30.611Z,11.60
2022-10-07T01:40:07.587Z,9.60
2022-10-07T01:42:40.721Z,9.30
2022-10-07T01:45:16.155Z,8.60
2022-10-07T01:47:48.317Z,9.20
2022-10-07T01:50:23.611Z,9.00
2022-10-07T01:53:15.526Z,9.20
2022-10-07T01:56:13.076Z,9.20
2022-10-07T01:59:07.271Z,8.80
2022-10-07T02:01:48.370Z,9.80
2022-10-07T02:04:44.692Z,9.20
2022-10-07T02:07:33.609Z,8.20
2022-10-07T02:10:14.012Z,8.60
2022-10-07T02:12:53.459Z,8.10
2022-10-07T02:15:29.223Z,8.80
2022-10-07T02:18:07.487Z,8.80
2022-10-07T02:20:42.914Z,8.50
2022-10-07T02:23:17.469Z,9.20
2022-10-07T02:25:52.113Z,9.00
2022-10-07T02:28:26.190Z,9.40
2022-10-07T02:31:02.827Z,8.70
2022-10-07T02:33:38.559Z,8.90
2022-10-07T02:38:46.325Z,8.70
2022-10-07T02:41:32.466Z,8.10
2022-10-07T02:44:19.835Z,8.80
2022-10-07T02:46:56.031Z,8.40
2022-10-07T02:49:30.320Z,8.90
2022-10-07T02:52:08.168Z,8.50
2022-10-07T02:54:43.564Z,7.50
2022-10-07T02:57:19.161Z,7.10
2022-10-07T02:59:53.720Z,9.20
2022-10-07T03:02:30.846Z,9.90
2022-10-07T03:05:03.162Z,8.90
2022-10-07T03:07:35.446Z,8.70
2022-10-07T03:10:11.619Z,10.10
2022-10-07T03:15:14.556Z,15.60
2022-10-07T03:17:47.175Z,18.00
2022-10-07T03:20:19.644Z,21.20
2022-10-07T03:22:51.713Z,17.90
2022-10-07T03:25:24.656Z,17.60
2022-10-07T03:27:58.064Z,19.70
2022-10-07T03:30:30.329Z,21.80
2022-10-07T03:33:04.072Z,20.30
2022-10-07T03:35:36.363Z,19.70
2022-10-07T03:38:08.766Z,17.30
2022-10-07T03:40:41.454Z,15.00
2022-10-07T03:43:13.921Z,14.80
2022-10-07T03:45:52.678Z,14.40
2022-10-07T03:48:25.108Z,14.60
2022-10-07T03:50:57.776Z,12.30
2022-10-07T03:53:31.552Z,9.20
2022-10-07T03:56:05.425Z,9.90
2022-10-07T03:58:38.482Z,10.80
2022-10-07T04:01:15.227Z,12.60
2022-10-07T04:03:56.074Z,14.80
2022-10-07T04:06:30.321Z,16.10
2022-10-07T04:09:03.608Z,14.40
2022-10-07T04:11:35.760Z,14.90
2022-10-07T04:14:07.849Z,12.90
2022-10-07T04:16:40.133Z,13.60
2022-10-07T04:19:14.315Z,11.90
2022-10-07T04:21:47.041Z,11.30
2022-10-07T04:24:19.817Z,12.20
2022-10-07T04:26:52.584Z,11.50
2022-10-07T04:29:25.622Z,11.70
2022-10-07T04:31:58.983Z,13.00
2022-10-07T04:34:31.218Z,13.30
2022-10-07T04:37:03.333Z,18.40
2022-10-07T04:39:56.437Z,18.80
2022-10-07T04:42:45.907Z,18.90
2022-10-07T04:45:18.875Z,18.30
2022-10-07T04:47:51.018Z,16.80
2022-10-07T04:50:23.519Z,15.90
2022-10-07T04:52:57.375Z,15.80
2022-10-07T04:55:30.958Z,15.90
2022-10-07T04:58:03.071Z,16.00
2022-10-07T05:00:36.125Z,17.30
2022-10-07T05:03:08.692Z,14.70
2022-10-07T05:05:44.073Z,13.30
2022-10-07T05:08:19.492Z,14.20
2022-10-07T05:10:57.205Z,13.50
2022-10-07T05:13:30.640Z,13.70
2022-10-07T05:16:04.360Z,11.80
2022-10-07T05:18:39.518Z,11.70
2022-10-07T05:21:14.130Z,11.20
2022-10-07T05:23:49.558Z,23.70
2022-10-07T05:26:25.981Z,30.90
2022-10-07T05:29:01.501Z,35.00
2022-10-07T05:31:39.430Z,83.10
2022-10-07T05:34:12.020Z,18.50
2022-10-07T05:36:44.742Z,12.50
2022-10-07T05:39:17.254Z,13.20
2022-10-07T05:41:54.218Z,12.00
2022-10-07T05:44:32.266Z,13.70
2022-10-07T05:47:05.053Z,14.50
2022-10-07T05:49:37.593Z,19.60
2022-10-07T05:52:10.381Z,15.60
2022-10-07T05:54:42.814Z,17.40
2022-10-07T05:57:15.112Z,18.20
2022-10-07T05:59:47.277Z,13.80
2022-10-07T06:02:20.707Z,14.10
2022-10-07T06:04:54.049Z,13.90
2022-10-07T06:07:29.317Z,11.60
2022-10-07T06:10:20.874Z,13.20
2022-10-07T06:13:08.580Z,13.60
2022-10-07T06:15:42.578Z,12.40
2022-10-07T06:18:14.984Z,11.70
2022-10-07T06:20:57.392Z,13.90
2022-10-07T06:23:30.989Z,14.80
2022-10-07T06:26:05.256Z,11.60
2022-10-07T06:28:40.187Z,10.90
2022-10-07T06:31:15.101Z,12.10
2022-10-07T06:33:48.155Z,13.30
2022-10-07T06:36:21.466Z,16.20
2022-10-07T06:38:57.594Z,18.10
2022-10-07T06:41:33.588Z,17.30
2022-10-07T06:44:30.428Z,25.20
2022-10-07T06:47:04.188Z,24.20
2022-10-07T06:49:39.101Z,22.00
2022-10-07T06:52:12.438Z,12.40
2022-10-07T06:54:45.885Z,10.20
2022-10-07T06:57:43.850Z,10.10
2022-10-07T07:00:15.384Z,8.70
2022-10-07T07:02:48.561Z,8.10
2022-10-07T07:05:21.098Z,8.70
2022-10-07T07:07:55.847Z,9.00
2022-10-07T07:10:29.986Z,9.30
2022-10-07T07:13:02.744Z,9.20
2022-10-07T07:15:35.148Z,8.10
2022-10-07T07:18:12.767Z,9.70
2022-10-07T07:20:45.519Z,12.60
2022-10-07T07:23:17.874Z,12.80
2022-10-07T07:25:52.907Z,12.50
2022-10-07T07:28:25.348Z,8.50
2022-10-07T07:30:57.794Z,8.90
2022-10-07T07:33:30.225Z,9.30
2022-10-07T07:36:02.565Z,9.30
2022-10-07T07:38:34.837Z,9.40
2022-10-07T07:41:10.151Z,10.40
2022-10-07T07:43:42.308Z,10.20
2022-10-07T07:46:14.756Z,9.70
2022-10-07T07:48:47.918Z,7.40
2022-10-07T07:51:20.439Z,7.00
2022-10-07T07:53:53.014Z,7.00
2022-10-07T07:56:25.540Z,7.10
2022-10-07T07:58:58.081Z,6.60
2022-10-07T08:01:32.090Z,7.10
2022-10-07T08:04:05.930Z,6.20
2022-10-07T08:06:38.818Z,6.40
2022-10-07T08:09:12.912Z,5.70
2022-10-07T08:11:46.545Z,5.20
2022-10-07T08:14:22.941Z,5.80
2022-10-07T08:16:59.231Z,5.10
2022-10-07T08:19:32.037Z,5.00
2022-10-07T08:22:04.684Z,5.10
2022-10-07T08:24:37.823Z,5.60
2022-10-07T08:27:10.237Z,4.90
2022-10-07T08:29:42.624Z,5.40
2022-10-07T08:32:15.705Z,4.30
2022-10-07T08:34:47.978Z,4.60
2022-10-07T08:37:20.637Z,7.70
2022-10-07T08:39:52.890Z,9.40
2022-10-07T08:42:29.562Z,5.40
2022-10-07T08:45:02.443Z,5.80
2022-10-07T08:47:39.946Z,8.60
2022-10-07T08:50:19.865Z,7.70
2022-10-07T08:52:56.347Z,6.00
2022-10-07T08:55:36.596Z,4.00
2022-10-07T08:58:29.866Z,5.50
2022-10-07T09:01:12.846Z,4.50
2022-10-07T09:03:52.285Z,5.40
2022-10-07T09:06:31.888Z,4.50
2022-10-07T09:09:11.871Z,3.90
2022-10-07T09:11:48.264Z,4.50
2022-10-07T09:14:27.552Z,3.80
2022-10-07T09:17:08.000Z,4.80
2022-10-07T09:19:44.846Z,4.70
2022-10-07T09:22:23.117Z,5.10
2022-10-07T09:25:07.546Z,3.80
2022-10-07T09:27:43.257Z,4.60
2022-10-07T09:30:17.503Z,4.60
2022-10-07T09:32:52.003Z,2.50
2022-10-07T09:35:27.024Z,2.90
2022-10-07T09:38:01.946Z,3.20
2022-10-07T09:41:03.218Z,3.80
2022-10-07T09:43:36.546Z,4.20
2022-10-07T09:46:25.726Z,2.90
2022-10-07T09:48:59.399Z,4.60
2022-10-07T09:51:32.829Z,4.70
2022-10-07T09:54:07.394Z,3.50
2022-10-07T09:56:42.485Z,3.80
2022-10-07T09:59:23.678Z,2.20
2022-10-07T10:01:59.000Z,2.60
2022-10-07T10:04:35.638Z,2.40
2022-10-07T10:07:22.975Z,2.50
2022-10-07T10:09:57.630Z,2.20
2022-10-07T10:12:32.558Z,2.60
2022-10-07T10:15:17.533Z,2.60
2022-10-07T10:17:50.122Z,1.90
2022-10-07T10:20:36.183Z,2.70
2022-10-07T10:23:29.493Z,2.50
2022-10-07T10:26:33.341Z,2.20
2022-10-07T10:29:18.077Z,1.80
2022-10-07T10:32:16.893Z,1.90
2022-10-07T10:34:56.076Z,1.60
2022-10-07T10:37:39.812Z,2.00
2022-10-07T10:40:23.010Z,2.00
2022-10-07T10:43:06.203Z,1.90
2022-10-07T10:45:45.931Z,1.30
2022-10-07T10:48:30.600Z,1.50
2022-10-07T10:51:24.282Z,1.70
2022-10-07T10:54:09.391Z,1.60
2022-10-07T10:56:48.937Z,2.20
2022-10-07T10:59:42.845Z,1.80
2022-10-07T11:02:35.070Z,2.60
2022-10-07T11:05:14.457Z,2.50
2022-10-07T11:07:53.990Z,3.60
2022-10-07T11:10:31.768Z,3.10
2022-10-07T11:13:19.169Z,7.80
2022-10-07T11:15:57.171Z,2.00
2022-10-07T11:18:37.141Z,2.10
2022-10-07T11:21:15.912Z,2.00
2022-10-07T11:23:54.282Z,2.70
2022-10-07T11:26:34.716Z,3.20
2022-10-07T11:29:17.110Z,9.50
2022-10-07T11:31:57.126Z,10.40
2022-10-07T11:34:42.321Z,4.50
2022-10-07T11:37:20.818Z,6.00
2022-10-07T11:39:54.701Z,6.60
2022-10-07T11:42:30.443Z,14.00
2022-10-07T11:45:08.324Z,61.20
2022-10-07T11:47:44.804Z,7.20
2022-10-07T11:50:20.861Z,60.50
2022-10-07T11:52:56.411Z,8.70
2022-10-07T11:55:34.732Z,6.20
2022-10-07T11:58:09.043Z,11.50
2022-10-07T12:00:41.672Z,11.70
2022-10-07T12:03:44.616Z,4.50
2022-10-07T12:06:16.901Z,3.50
2022-10-07T12:08:49.521Z,3.60
2022-10-07T12:11:47.544Z,5.30
2022-10-07T12:14:59.488Z,8.40
2022-10-07T12:17:31.790Z,4.40
2022-10-07T12:20:45.261Z,3.80
2022-10-07T12:23:51.271Z,3.40
2022-10-07T12:26:54.261Z,4.40
2022-10-07T12:29:34.009Z,5.70
2022-10-07T12:32:26.581Z,34.60
2022-10-07T12:35:18.751Z,9.80
2022-10-07T12:38:03.058Z,12.30
2022-10-07T12:40:39.113Z,5.90
2022-10-07T12:43:26.307Z,3.80
2022-10-07T12:45:59.753Z,55.40
2022-10-07T12:48:38.739Z,34.70
2022-10-07T12:51:18.533Z,7.30
2022-10-07T12:53:53.111Z,3.20
2022-10-07T12:56:29.224Z,6.00
2022-10-07T12:59:43.524Z,4.50
2022-10-07T13:02:45.979Z,8.80
2022-10-07T13:06:15.924Z,8.10
2022-10-07T13:09:24.815Z,4.50
2022-10-07T13:12:28.101Z,4.70
2022-10-07T13:15:26.505Z,5.30
2022-10-07T13:18:07.387Z,2.70
2022-10-07T13:20:55.969Z,2.40
2022-10-07T13:23:31.790Z,3.50
2022-10-07T13:26:05.427Z,2.10
2022-10-07T13:28:48.670Z,3.70
2022-10-07T13:31:24.540Z,3.60
2022-10-07T13:34:19.196Z,5.40
2022-10-07T13:36:51.464Z,5.30
2022-10-07T13:39:25.834Z,3.70
2022-10-07T13:42:03.190Z,4.00
2022-10-07T13:44:36.362Z,4.20
2022-10-07T13:47:10.141Z,6.20
2022-10-07T13:49:48.797Z,2.00
2022-10-07T13:52:27.065Z,6.60
2022-10-07T13:54:59.466Z,6.00
2022-10-07T13:57:36.118Z,2.90
2022-10-07T14:00:12.691Z,5.60
2022-10-07T14:02:46.296Z,5.50
2022-10-07T14:05:24.024Z,5.70
2022-10-07T14:07:58.741Z,3.40
2022-10-07T14:13:07.378Z,3.50
2022-10-07T14:15:48.018Z,3.10
2022-10-07T14:18:20.456Z,4.70
2022-10-07T14:20:55.921Z,6.80
2022-10-07T14:23:31.316Z,17.30
2022-10-07T14:26:05.597Z,7.20
2022-10-07T14:28:39.790Z,5.90
2022-10-07T14:31:38.977Z,4.90
2022-10-07T14:34:36.953Z,4.20
2022-10-07T14:37:11.316Z,5.80
2022-10-07T14:39:47.779Z,5.00
2022-10-07T14:42:23.934Z,7.20
2022-10-07T14:44:57.616Z,3.50
2022-10-07T14:47:31.529Z,4.50
2022-10-07T14:50:03.793Z,4.60
2022-10-07T14:52:44.537Z,5.10
2022-10-07T14:55:20.818Z,3.90
2022-10-07T14:57:53.493Z,3.20
2022-10-07T15:00:29.463Z,4.50
2022-10-07T15:03:02.977Z,3.50
2022-10-07T15:05:35.346Z,3.10
2022-10-07T15:08:07.567Z,3.60
2022-10-07T15:10:42.365Z,4.40
2022-10-07T15:13:15.186Z,6.90
2022-10-07T15:15:49.409Z,7.80
2022-10-07T15:18:21.729Z,7.30
2022-10-07T15:20:59.205Z,8.10
2022-10-07T15:23:31.495Z,8.20
2022-10-07T15:26:03.869Z,9.50
2022-10-07T15:28:37.415Z,9.40
2022-10-07T15:31:10.999Z,10.30
2022-10-07T15:33:44.453Z,10.20
2022-10-07T15:36:17.862Z,11.40
2022-10-07T15:38:50.097Z,12.30
2022-10-07T15:41:34.970Z,11.00
2022-10-07T15:44:13.902Z,13.10
2022-10-07T15:46:47.687Z,13.30
2022-10-07T15:49:19.940Z,18.80
2022-10-07T15:51:52.174Z,16.10
2022-10-07T15:54:25.991Z,10.20
2022-10-07T15:56:58.344Z,13.40
2022-10-07T15:59:30.749Z,15.40
2022-10-07T16:02:03.901Z,14.40
2022-10-07T16:04:36.103Z,19.90
2022-10-07T16:07:08.497Z,12.90
2022-10-07T16:09:41.059Z,10.90
2022-10-07T16:12:13.565Z,10.10
2022-10-07T16:14:47.509Z,11.40
2022-10-07T16:17:19.886Z,10.30
2022-10-07T16:19:52.105Z,10.00
2022-10-07T16:22:24.337Z,11.60
2022-10-07T16:24:56.569Z,12.40
2022-10-07T16:27:49.605Z,16.20
2022-10-07T16:30:39.761Z,18.70
2022-10-07T16:33:11.952Z,26.20
2022-10-07T16:35:44.201Z,70.30
2022-10-07T16:38:16.658Z,86.00
2022-10-07T16:40:56.071Z,79.50
2022-10-07T16:43:29.654Z,67.00
2022-10-07T16:46:05.048Z,71.20
2022-10-07T16:48:41.280Z,134.90
2022-10-07T16:51:16.394Z,157.40
2022-10-07T16:53:50.678Z,164.70
2022-10-07T16:56:23.765Z,154.30
2022-10-07T16:58:59.840Z,123.80
2022-10-07T17:01:33.827Z,139.20
2022-10-07T17:04:07.178Z,169.70
2022-10-07T17:06:39.435Z,196.80
2022-10-07T17:09:11.607Z,150.60
2022-10-07T17:11:44.525Z,134.30
2022-10-07T17:14:18.743Z,125.80
2022-10-07T17:16:52.530Z,107.20
2022-10-07T17:19:26.554Z,102.10
2022-10-07T17:22:01.017Z,82.10
2022-10-07T17:24:33.238Z,76.90
2022-10-07T17:27:08.637Z,65.60
2022-10-07T17:29:40.863Z,56.20
2022-10-07T17:32:13.096Z,64.00
2022-10-07T17:34:45.628Z,41.50
2022-10-07T17:37:17.887Z,57.30
2022-10-07T17:39:50.085Z,60.80
2022-10-07T17:42:22.496Z,48.30
2022-10-07T17:44:55.232Z,39.10
2022-10-07T17:47:27.580Z,64.90
2022-10-07T17:49:59.894Z,57.40
2022-10-07T17:52:32.825Z,58.90
2022-10-07T17:55:06.250Z,57.00
2022-10-07T17:57:39.232Z,64.90
2022-10-07T18:00:13.417Z,65.30
2022-10-07T18:02:46.216Z,95.80
2022-10-07T18:05:19.760Z,89.10
2022-10-07T18:07:52.600Z,68.80
2022-10-07T18:10:24.886Z,72.70
2022-10-07T18:13:15.025Z,44.50
2022-10-07T18:15:57.042Z,56.80
2022-10-07T18:18:30.142Z,58.90
2022-10-07T18:21:06.966Z,36.30
2022-10-07T18:23:40.053Z,25.10
2022-10-07T18:26:13.844Z,95.20
2022-10-07T18:28:47.282Z,33.30
2022-10-07T18:31:21.305Z,28.20
2022-10-07T18:33:53.452Z,31.30
2022-10-07T18:36:25.833Z,44.80
2022-10-07T18:38:58.484Z,65.10
2022-10-07T18:41:30.814Z,46.30
2022-10-07T18:44:03.186Z,29.50
2022-10-07T18:46:35.734Z,28.10
2022-10-07T18:49:09.482Z,30.50
2022-10-07T18:51:42.143Z,23.00
2022-10-07T18:54:14.743Z,26.70
2022-10-07T18:56:49.746Z,29.40
2022-10-07T19:01:53.348Z,74.30
2022-10-07T19:04:25.822Z,384.10
2022-10-07T19:06:58.043Z,370.10
2022-10-07T19:09:30.382Z,206.30
2022-10-07T19:12:02.862Z,56.00
2022-10-07T19:14:35.133Z,22.50
2022-10-07T19:17:07.334Z,15.30
2022-10-07T19:19:41.363Z,10.30
2022-10-07T19:22:15.212Z,10.60
2022-10-07T19:25:05.215Z,11.10
2022-10-07T19:27:37.557Z,11.00
2022-10-07T19:30:12.087Z,22.90
2022-10-07T19:32:45.006Z,14.20
2022-10-07T19:35:17.401Z,12.50
2022-10-07T19:37:49.947Z,24.50
2022-10-07T19:40:22.374Z,13.50
2022-10-07T19:42:54.614Z,14.80
2022-10-07T19:45:26.994Z,12.60
2022-10-07T19:47:59.313Z,21.10
2022-10-07T19:50:31.634Z,20.40
2022-10-07T19:53:03.958Z,19.00
2022-10-07T19:55:36.826Z,17.20
2022-10-07T19:58:13.178Z,15.70
2022-10-07T20:00:45.456Z,14.20
2022-10-07T20:03:17.795Z,14.10
2022-10-07T20:05:50.018Z,11.10
2022-10-07T20:08:22.353Z,21.80
2022-10-07T20:10:54.821Z,13.90
2022-10-07T20:13:27.191Z,12.60
2022-10-07T20:16:06.282Z,14.50
2022-10-07T20:18:40.350Z,16.20
2022-10-07T20:21:16.160Z,19.20
2022-10-07T20:23:50.001Z,17.60
2022-10-07T20:26:24.759Z,17.70
2022-10-07T20:28:59.760Z,18.40
2022-10-07T20:31:34.933Z,15.40
2022-10-07T20:34:14.455Z,13.30
2022-10-07T20:36:47.269Z,16.60
2022-10-07T20:39:38.761Z,17.40
2022-10-07T20:42:27.430Z,14.70
2022-10-07T20:45:00.130Z,14.70
2022-10-07T20:47:35.174Z,23.70
2022-10-07T20:50:08.460Z,14.30
2022-10-07T20:52:40.889Z,12.30
2022-10-07T20:55:14.461Z,12.30
2022-10-07T20:57:47.224Z,15.20
2022-10-07T21:00:19.623Z,13.10
2022-10-07T21:02:52.029Z,14.40
2022-10-07T21:05:24.752Z,12.40
2022-10-07T21:07:57.052Z,12.60
2022-10-07T21:10:29.388Z,13.10
2022-10-07T21:13:01.968Z,11.80
2022-10-07T21:15:37.733Z,11.90
2022-10-07T21:18:10.149Z,11.90
2022-10-07T21:20:56.492Z,12.90
2022-10-07T21:23:29.953Z,12.50
2022-10-07T21:26:04.159Z,11.50
2022-10-07T21:28:37.806Z,13.60
2022-10-07T21:31:15.152Z,11.20
2022-10-07T21:33:49.571Z,12.00
2022-10-07T21:36:24.403Z,12.00
2022-10-07T21:39:00.496Z,11.90
2022-10-07T21:41:34.901Z,11.60
2022-10-07T21:44:10.480Z,11.90
2022-10-07T21:46:43.982Z,11.10
2022-10-07T21:49:17.576Z,11.70
2022-10-07T21:51:49.802Z,16.20
2022-10-07T21:54:22.139Z,13.40
2022-10-07T21:56:54.521Z,12.20
2022-10-07T21:59:26.980Z,12.00
2022-10-07T22:01:59.293Z,12.30
2022-10-07T22:04:31.559Z,12.60
2022-10-07T22:07:26.572Z,12.60
2022-10-07T22:09:59.118Z,12.60
2022-10-07T22:12:31.342Z,12.80
2022-10-07T22:15:03.618Z,12.50
2022-10-07T22:17:35.951Z,12.60
2022-10-07T22:20:09.720Z,13.60
2022-10-07T22:22:42.431Z,12.70
2022-10-07T22:25:14.712Z,13.10
2022-10-07T22:27:48.880Z,12.30
2022-10-07T22:30:21.319Z,12.90
2022-10-07T22:32:53.676Z,12.60
2022-10-07T22:35:30.376Z,12.30
2022-10-07T22:38:03.113Z,13.20
2022-10-07T22:40:39.674Z,12.90
2022-10-07T22:43:12.111Z,12.00
2022-10-07T22:45:44.534Z,12.70
2022-10-07T22:48:17.179Z,12.60
2022-10-07T22:50:49.476Z,12.50
2022-10-07T22:53:23.182Z,13.10
2022-10-07T22:55:55.489Z,13.40
2022-10-07T22:58:27.805Z,14.50
2022-10-07T23:01:05.378Z,13.90
2022-10-07T23:03:40.104Z,11.90
2022-10-07T23:06:13.520Z,12.70
2022-10-07T23:08:46.922Z,12.30
2022-10-07T23:11:23.433Z,13.00
2022-10-07T23:13:56.655Z,12.70
2022-10-07T23:16:32.516Z,12.30
2022-10-07T23:19:04.830Z,13.60
2022-10-07T23:21:37.944Z,18.60
2022-10-07T23:24:11.765Z,21.80
2022-10-07T23:26:46.616Z,124.90
2022-10-07T23:31:49.620Z,34.10
2022-10-07T23:34:22.013Z,57.80
2022-10-07T23:36:55.248Z,297.80
2022-10-07T23:39:27.689Z,35.40
2022-10-07T23:41:59.946Z,33.90
2022-10-07T23:44:32.232Z,74.70
2022-10-07T23:47:05.276Z,34.00
2022-10-07T23:49:37.607Z,40.20
2022-10-07T23:52:09.808Z,14.90
2022-10-07T23:54:42.189Z,27.60
2022-10-07T23:57:14.475Z,20.90
2022-10-07T23:59:46.820Z,16.10
